Time;durP1;ratioP1;P1;durP2;ratioP2;P2;SDS_P1;SDS_P2;PMS_P1;PMS_P2;Temp;Humidity;BMP_temperature;BMP_pressure;BME280_temperature;BME280_humidity;BME280_pressure;Samples;Min_cycle;Max_cycle;Signal;HPM_P1;HPM_P2
2021/08/06 00:00:06;;;;;;;6.78;4.78;;;14.80;99.90;;;;;;5011647;28;20025;-76
2021/08/06 00:02:32;;;;;;;6.53;4.80;;;14.90;99.90;;;;;;5000352;28;20034;-74
2021/08/06 00:04:58;;;;;;;8.57;5.00;;;14.70;99.90;;;;;;4992758;28;20133;-75
2021/08/06 00:07:23;;;;;;;7.07;5.20;;;14.60;99.90;;;;;;4995272;28;20023;-75
2021/08/06 00:09:50;;;;;;;6.70;4.78;;;14.50;99.90;;;;;;5007333;28;20030;-75
2021/08/06 00:12:16;;;;;;;9.15;5.50;;;14.50;99.90;;;;;;5006542;28;20033;-75
2021/08/06 00:14:41;;;;;;;7.93;5.35;;;14.60;99.90;;;;;;4994859;28;20485;-74
2021/08/06 00:17:07;;;;;;;6.53;5.32;;;14.50;99.90;;;;;;4994189;28;20479;-75
2021/08/06 00:19:33;;;;;;;6.43;5.05;;;14.60;99.90;;;;;;5000602;28;20030;-75
2021/08/06 00:21:58;;;;;;;5.90;4.25;;;14.80;99.90;;;;;;4999118;28;20041;-74
2021/08/06 00:24:24;;;;;;;5.40;4.35;;;14.90;99.90;;;;;;4987591;28;20030;-75
2021/08/06 00:26:49;;;;;;;7.55;4.68;;;14.80;99.90;;;;;;5013508;28;20033;-77
2021/08/06 00:29:15;;;;;;;5.13;4.63;;;14.80;99.90;;;;;;4999330;28;20018;-77
2021/08/06 00:31:40;;;;;;;9.10;4.75;;;14.60;99.90;;;;;;5000299;28;20029;-76
2021/08/06 00:34:06;;;;;;;4.78;4.35;;;14.70;99.90;;;;;;5006772;28;20038;-77
2021/08/06 00:36:32;;;;;;;6.68;4.43;;;14.70;99.90;;;;;;5006788;28;20026;-77
2021/08/06 00:38:58;;;;;;;5.65;4.70;;;14.70;99.90;;;;;;4985464;28;20077;-77
2021/08/06 00:41:23;;;;;;;5.88;4.68;;;14.60;99.90;;;;;;4998934;28;20037;-76
2021/08/06 00:43:49;;;;;;;5.18;4.65;;;14.60;99.90;;;;;;4993859;28;20023;-75
2021/08/06 00:46:16;;;;;;;8.27;5.32;;;14.50;99.90;;;;;;4994180;28;20370;-76
2021/08/06 00:48:43;;;;;;;7.18;5.13;;;14.50;99.90;;;;;;4993677;28;20022;-75
2021/08/06 00:51:09;;;;;;;6.75;4.80;;;14.60;99.90;;;;;;4993688;28;20069;-76
2021/08/06 00:53:39;;;;;;;5.72;4.57;;;14.70;99.90;;;;;;5005679;28;20034;-75
2021/08/06 00:56:05;;;;;;;7.68;5.47;;;14.70;99.90;;;;;;5006549;28;20116;-75
2021/08/06 00:58:31;;;;;;;5.50;4.93;;;14.80;99.90;;;;;;4993483;28;20030;-76
2021/08/06 01:00:57;;;;;;;6.43;5.13;;;14.70;99.90;;;;;;5006281;28;20041;-74
2021/08/06 01:03:32;;;;;;;7.30;5.32;;;14.80;99.90;;;;;;5000529;28;20026;-76
2021/08/06 01:06:11;;;;;;;5.65;4.78;;;14.90;99.90;;;;;;4999753;28;20023;-76
2021/08/06 01:09:15;;;;;;;9.68;5.22;;;14.80;99.90;;;;;;5001277;28;20027;-76
2021/08/06 01:11:45;;;;;;;5.70;5.18;;;14.70;99.90;;;;;;4989986;28;20037;-76
2021/08/06 01:14:15;;;;;;;8.48;5.93;;;14.70;99.90;;;;;;4997199;28;20034;-75
2021/08/06 01:16:41;;;;;;;6.90;5.47;;;14.70;99.90;;;;;;5002858;28;20017;-75
2021/08/06 01:19:24;;;;;;;6.85;5.43;;;14.70;99.90;;;;;;4999671;28;20503;-76
2021/08/06 01:21:58;;;;;;;9.07;5.90;;;14.70;99.90;;;;;;4999968;28;20037;-76
2021/08/06 01:24:26;;;;;;;6.47;5.82;;;14.60;99.90;;;;;;4986327;28;20481;-76
2021/08/06 01:26:51;;;;;;;7.63;5.30;;;14.60;99.90;;;;;;4999251;28;20033;-75
2021/08/06 01:29:17;;;;;;;8.30;5.38;;;14.60;99.90;;;;;;5005399;28;20030;-75
2021/08/06 01:31:43;;;;;;;6.82;5.78;;;14.80;99.90;;;;;;4999541;28;20648;-75
2021/08/06 01:34:09;;;;;;;6.57;5.63;;;14.90;99.90;;;;;;4999954;28;20682;-75
2021/08/06 01:36:34;;;;;;;10.23;6.03;;;14.90;99.90;;;;;;4997660;28;20069;-75
2021/08/06 01:39:00;;;;;;;9.23;5.53;;;14.90;99.90;;;;;;5005373;28;20148;-75
2021/08/06 01:41:57;;;;;;;6.85;5.72;;;14.80;99.90;;;;;;5005756;28;20069;-75
2021/08/06 01:44:26;;;;;;;;;;;14.80;99.90;;;;;;5004133;28;20033;-75
2021/08/06 01:47:27;;;;;;;10.32;5.75;;;14.80;99.90;;;;;;4998992;28;19906;-76
2021/08/06 01:49:58;;;;;;;9.52;5.63;;;14.90;99.90;;;;;;4998669;28;20075;-76
2021/08/06 01:52:37;;;;;;;7.10;5.55;;;14.70;99.90;;;;;;5001736;28;20496;-75
2021/08/06 01:55:03;;;;;;;7.05;5.40;;;14.80;99.90;;;;;;4991125;28;20185;-76
2021/08/06 01:57:32;;;;;;;8.52;6.38;;;14.90;99.90;;;;;;5004560;28;20492;-75
2021/08/06 02:00:00;;;;;;;10.88;5.88;;;15.00;99.90;;;;;;4998852;28;20573;-75
2021/08/06 02:02:25;;;;;;;6.95;6.25;;;15.00;99.90;;;;;;4998177;28;20404;-75
2021/08/06 02:04:51;;;;;;;10.57;7.47;;;15.10;99.90;;;;;;4993291;28;20022;-75
2021/08/06 02:07:17;;;;;;;11.68;7.70;;;15.00;99.90;;;;;;4998945;28;20026;-75
2021/08/06 02:09:44;;;;;;;11.30;7.32;;;15.20;99.90;;;;;;5017947;28;20029;-75
2021/08/06 02:12:11;;;;;;;11.60;8.43;;;15.10;99.90;;;;;;5018579;28;20068;-76
2021/08/06 02:14:36;;;;;;;11.32;9.68;;;15.00;99.90;;;;;;4998870;28;20019;-74
2021/08/06 02:17:02;;;;;;;15.85;9.68;;;15.10;99.90;;;;;;5011398;28;20056;-75
2021/08/06 02:19:30;;;;;;;13.63;10.02;;;15.10;99.90;;;;;;5001362;28;20026;-74
2021/08/06 02:21:58;;;;;;;16.13;10.40;;;15.20;99.90;;;;;;5001657;28;20050;-75
2021/08/06 02:24:26;;;;;;;13.05;10.57;;;15.10;99.90;;;;;;5005489;28;20523;-74
2021/08/06 02:26:53;;;;;;;15.45;11.75;;;15.20;99.90;;;;;;5005087;28;20050;-74
2021/08/06 02:29:21;;;;;;;17.65;11.60;;;15.00;99.90;;;;;;4998648;28;20380;-74
2021/08/06 02:31:47;;;;;;;13.27;10.20;;;14.90;99.90;;;;;;4998554;28;20053;-73
2021/08/06 02:34:15;;;;;;;14.15;10.90;;;15.00;99.90;;;;;;4998671;28;20025;-73
2021/08/06 02:36:42;;;;;;;14.35;11.82;;;15.10;99.90;;;;;;4998429;28;20520;-74
2021/08/06 02:39:16;;;;;;;18.45;12.18;;;15.20;99.90;;;;;;5006703;28;20029;-75
2021/08/06 02:41:42;;;;;;;16.55;10.57;;;15.00;99.90;;;;;;5003707;28;20030;-75
2021/08/06 02:44:09;;;;;;;14.23;11.30;;;15.20;99.90;;;;;;5018360;28;20089;-75
2021/08/06 02:46:35;;;;;;;13.82;11.00;;;15.10;99.90;;;;;;5002128;28;20031;-74
2021/08/06 02:49:00;;;;;;;13.27;11.38;;;15.10;99.90;;;;;;4998463;28;20388;-74
2021/08/06 02:51:26;;;;;;;15.13;11.35;;;15.10;99.90;;;;;;4998388;28;20141;-73
2021/08/06 02:53:51;;;;;;;13.55;10.48;;;15.20;99.90;;;;;;4998530;28;20034;-75
2021/08/06 02:56:17;;;;;;;16.98;10.43;;;15.30;99.90;;;;;;4999308;28;20530;-75
2021/08/06 02:58:43;;;;;;;14.75;11.43;;;15.50;99.90;;;;;;5009406;28;20030;-75
2021/08/06 03:01:08;;;;;;;13.38;10.38;;;15.40;99.90;;;;;;4998004;28;20109;-73
2021/08/06 03:03:34;;;;;;;13.65;11.15;;;15.30;99.90;;;;;;5006979;28;20538;-74
2021/08/06 03:05:59;;;;;;;14.48;10.75;;;15.50;99.90;;;;;;5001550;28;20030;-74
2021/08/06 03:08:24;;;;;;;16.60;11.40;;;15.40;99.90;;;;;;4998303;28;20069;-74
2021/08/06 03:10:50;;;;;;;18.80;11.93;;;15.40;99.90;;;;;;4998167;28;20069;-74
2021/08/06 03:13:16;;;;;;;15.07;11.23;;;15.40;99.90;;;;;;5006499;28;20452;-75
2021/08/06 03:15:41;;;;;;;13.77;11.32;;;15.30;99.90;;;;;;5001766;28;20773;-75
2021/08/06 03:18:07;;;;;;;14.43;11.35;;;15.40;99.90;;;;;;4994562;28;20077;-74
2021/08/06 03:20:32;;;;;;;15.13;11.25;;;15.40;99.90;;;;;;4996595;28;20026;-74
2021/08/06 03:22:58;;;;;;;15.65;11.98;;;15.50;99.90;;;;;;5006506;28;20033;-74
2021/08/06 03:25:23;;;;;;;15.75;12.13;;;15.20;99.90;;;;;;5000073;28;20030;-75
2021/08/06 03:27:49;;;;;;;15.23;11.98;;;15.20;99.90;;;;;;5006389;28;20026;-75
2021/08/06 03:30:15;;;;;;;19.55;12.77;;;15.30;99.90;;;;;;4995031;28;20027;-75
2021/08/06 03:32:42;;;;;;;14.95;12.07;;;15.40;99.90;;;;;;5003226;28;20034;-75
2021/08/06 03:35:08;;;;;;;14.85;11.70;;;15.30;99.90;;;;;;4999994;28;20109;-75
2021/08/06 03:37:34;;;;;;;16.90;12.40;;;15.20;99.90;;;;;;5006291;28;20042;-75
2021/08/06 03:40:00;;;;;;;14.43;11.32;;;15.30;99.90;;;;;;4996306;28;20030;-74
2021/08/06 03:42:26;;;;;;;14.73;11.80;;;15.40;99.90;;;;;;5006447;28;20101;-75
2021/08/06 03:44:51;;;;;;;17.20;11.45;;;15.40;99.90;;;;;;5007701;28;20033;-75
2021/08/06 03:47:17;;;;;;;14.57;11.07;;;15.40;99.90;;;;;;4994890;28;20030;-74
2021/08/06 03:49:43;;;;;;;13.48;10.82;;;15.50;99.90;;;;;;4995824;28;20503;-75
2021/08/06 03:52:09;;;;;;;14.48;11.02;;;15.50;99.90;;;;;;5004471;28;20504;-75
2021/08/06 03:54:34;;;;;;;13.30;10.77;;;15.50;99.90;;;;;;5002743;28;20074;-75
2021/08/06 03:57:00;;;;;;;15.32;10.73;;;15.60;99.90;;;;;;5002194;28;20026;-75
2021/08/06 03:59:25;;;;;;;14.48;11.00;;;15.70;99.90;;;;;;5000002;28;20038;-75
2021/08/06 04:01:51;;;;;;;14.00;11.18;;;15.70;99.90;;;;;;4993164;28;20027;-75
2021/08/06 04:04:17;;;;;;;13.57;11.02;;;15.60;99.90;;;;;;5008088;28;20033;-75
2021/08/06 04:06:42;;;;;;;14.50;11.02;;;15.60;99.90;;;;;;5013787;28;20026;-76
2021/08/06 04:09:08;;;;;;;14.02;11.75;;;15.60;99.90;;;;;;5000737;28;20566;-75
2021/08/06 04:11:33;;;;;;;14.68;11.48;;;15.60;99.90;;;;;;5000604;28;20061;-75
2021/08/06 04:13:59;;;;;;;15.88;10.65;;;15.60;99.90;;;;;;5003053;28;20114;-75
2021/08/06 04:16:25;;;;;;;13.32;10.48;;;15.60;99.90;;;;;;5012336;28;20018;-76
2021/08/06 04:18:53;;;;;;;15.68;11.35;;;15.50;99.90;;;;;;4999480;28;20101;-74
2021/08/06 04:21:19;;;;;;;13.93;11.02;;;15.50;99.90;;;;;;4993990;28;20026;-74
2021/08/06 04:23:44;;;;;;;13.65;10.60;;;15.60;99.90;;;;;;5007160;28;20049;-74
2021/08/06 04:26:10;;;;;;;15.02;10.73;;;15.60;99.90;;;;;;4993918;28;20026;-75
2021/08/06 04:28:36;;;;;;;11.82;10.40;;;15.60;99.90;;;;;;4992454;28;20105;-74
2021/08/06 04:31:04;;;;;;;13.23;10.38;;;15.60;99.90;;;;;;5001650;28;20121;-75
2021/08/06 04:33:30;;;;;;;18.00;10.90;;;15.70;99.90;;;;;;4997404;28;20109;-75
2021/08/06 04:35:57;;;;;;;16.63;9.77;;;15.70;99.90;;;;;;4992528;28;20117;-75
2021/08/06 04:38:22;;;;;;;13.48;9.48;;;15.60;99.90;;;;;;4997908;28;20039;-76
2021/08/06 04:40:48;;;;;;;12.85;10.52;;;15.70;99.90;;;;;;5001852;28;20484;-76
2021/08/06 04:43:13;;;;;;;13.45;10.00;;;15.60;99.90;;;;;;5000197;28;20038;-76
2021/08/06 04:45:39;;;;;;;14.77;10.13;;;15.60;99.90;;;;;;5004960;28;20030;-75
2021/08/06 04:48:05;;;;;;;13.77;10.20;;;15.70;99.90;;;;;;5006770;28;20053;-76
2021/08/06 04:50:31;;;;;;;15.23;10.63;;;15.50;99.90;;;;;;5001678;28;20034;-76
2021/08/06 04:52:57;;;;;;;11.10;9.63;;;15.50;99.90;;;;;;4998539;28;20077;-76
2021/08/06 04:55:26;;;;;;;15.55;10.35;;;15.60;99.90;;;;;;4992056;28;20115;-75
2021/08/06 04:57:52;;;;;;;14.70;10.40;;;15.70;99.90;;;;;;5006649;28;20045;-75
2021/08/06 05:00:19;;;;;;;11.40;10.18;;;15.70;99.90;;;;;;5001696;28;20394;-76
2021/08/06 05:02:45;;;;;;;11.48;9.35;;;15.80;99.90;;;;;;4997922;28;20027;-75
2021/08/06 05:05:12;;;;;;;12.10;10.10;;;15.70;99.90;;;;;;4993105;28;20018;-74
2021/08/06 05:07:39;;;;;;;12.88;9.60;;;15.70;99.90;;;;;;5006526;28;20108;-75
2021/08/06 05:10:05;;;;;;;10.52;8.68;;;15.70;99.90;;;;;;4995154;28;20026;-75
2021/08/06 05:12:30;;;;;;;13.10;9.88;;;15.80;99.90;;;;;;4993081;28;20036;-75
2021/08/06 05:14:56;;;;;;;11.60;8.57;;;15.90;99.90;;;;;;4993549;28;20022;-76
2021/08/06 05:17:22;;;;;;;11.90;8.38;;;15.90;99.90;;;;;;5006755;28;20029;-77
2021/08/06 05:19:47;;;;;;;10.95;8.57;;;15.80;99.90;;;;;;5002864;28;20483;-76
2021/08/06 05:22:13;;;;;;;13.30;9.25;;;16.00;99.90;;;;;;4996586;28;20030;-75
2021/08/06 05:24:38;;;;;;;11.07;8.90;;;16.00;99.90;;;;;;5001098;28;20041;-76
2021/08/06 05:27:04;;;;;;;10.85;8.10;;;16.20;99.90;;;;;;5009718;28;20476;-75
2021/08/06 05:29:30;;;;;;;9.48;7.97;;;16.20;99.90;;;;;;4992792;28;20477;-75
2021/08/06 05:31:55;;;;;;;13.25;8.40;;;16.30;99.90;;;;;;4993065;28;20022;-74
2021/08/06 05:34:21;;;;;;;9.50;8.07;;;16.30;99.90;;;;;;4992780;28;20030;-74
2021/08/06 05:36:47;;;;;;;11.07;7.45;;;16.40;99.90;;;;;;4991535;28;20535;-76
2021/08/06 05:39:12;;;;;;;8.15;6.55;;;16.30;99.90;;;;;;4992915;28;20042;-74
2021/08/06 05:41:37;;;;;;;8.80;6.72;;;16.40;99.90;;;;;;4993796;28;20392;-75
2021/08/06 05:44:04;;;;;;;10.00;7.10;;;16.40;99.90;;;;;;5002607;28;20064;-75
2021/08/06 05:46:29;;;;;;;8.45;7.07;;;16.30;99.90;;;;;;4998919;28;20481;-75
2021/08/06 05:48:55;;;;;;;7.97;7.00;;;16.50;99.90;;;;;;5004237;28;20022;-75
2021/08/06 05:51:20;;;;;;;8.18;6.53;;;16.60;99.90;;;;;;5004509;28;20035;-72
2021/08/06 05:53:46;;;;;;;7.43;6.63;;;16.70;99.90;;;;;;4992314;28;20041;-72
2021/08/06 05:56:11;;;;;;;8.07;6.85;;;16.80;99.90;;;;;;4992871;28;20038;-76
2021/08/06 05:58:37;;;;;;;7.65;6.40;;;16.80;99.90;;;;;;5000231;28;20472;-76
2021/08/06 06:01:03;;;;;;;10.45;5.65;;;17.00;99.90;;;;;;4997815;28;20069;-75
2021/08/06 06:03:28;;;;;;;8.18;6.07;;;17.00;99.90;;;;;;5000386;28;20460;-75
2021/08/06 06:05:54;;;;;;;7.60;5.65;;;17.00;99.90;;;;;;4998839;28;20584;-76
2021/08/06 06:08:19;;;;;;;6.30;5.70;;;17.10;99.90;;;;;;5000035;28;20027;-76
2021/08/06 06:10:45;;;;;;;7.00;5.40;;;17.30;99.90;;;;;;5005491;28;20396;-76
2021/08/06 06:13:10;;;;;;;7.57;5.78;;;17.50;99.90;;;;;;4999993;28;20025;-76
2021/08/06 06:15:36;;;;;;;8.32;5.15;;;17.40;99.90;;;;;;4984424;28;20035;-76
2021/08/06 06:18:02;;;;;;;6.97;5.72;;;17.40;99.90;;;;;;5004496;28;20029;-76
2021/08/06 06:20:28;;;;;;;8.18;5.22;;;17.40;99.90;;;;;;5005632;28;20485;-76
2021/08/06 06:22:54;;;;;;;5.72;5.07;;;17.40;99.90;;;;;;4999507;28;20116;-76
2021/08/06 06:25:19;;;;;;;8.02;5.50;;;17.40;99.90;;;;;;4998555;28;20504;-76
2021/08/06 06:27:57;;;;;;;6.43;5.32;;;17.30;99.90;;;;;;5004779;28;20026;-77
2021/08/06 06:30:25;;;;;;;7.43;5.50;;;17.70;99.90;;;;;;5005456;28;20026;-76
2021/08/06 06:32:55;;;;;;;6.25;4.78;;;17.90;99.90;;;;;;5000036;28;20037;-72
2021/08/06 06:35:21;;;;;;;7.97;5.55;;;18.10;99.90;;;;;;4998814;28;20160;-78
2021/08/06 06:37:47;;;;;;;6.82;5.18;;;18.00;99.90;;;;;;4990501;28;20050;-75
2021/08/06 06:40:14;;;;;;;5.80;4.80;;;17.90;99.90;;;;;;5005291;28;20104;-75
2021/08/06 06:42:39;;;;;;;8.40;4.53;;;18.00;99.90;;;;;;5001517;28;20038;-75
2021/08/06 06:45:05;;;;;;;4.80;4.30;;;18.40;99.90;;;;;;4995467;28;20030;-75
2021/08/06 06:47:36;;;;;;;4.85;4.45;;;18.10;99.90;;;;;;4990886;28;20030;-74
2021/08/06 06:50:02;;;;;;;6.50;4.50;;;18.30;99.90;;;;;;4991947;28;20031;-75
2021/08/06 06:52:27;;;;;;;6.65;4.55;;;18.40;99.90;;;;;;4993296;28;20033;-74
2021/08/06 06:54:53;;;;;;;5.78;4.10;;;18.50;99.90;;;;;;5008783;28;20030;-75
2021/08/06 06:57:18;;;;;;;4.43;3.50;;;18.30;99.90;;;;;;4996520;28;20030;-74
2021/08/06 06:59:44;;;;;;;4.43;4.03;;;18.40;99.90;;;;;;4998529;28;20485;-75
2021/08/06 07:02:09;;;;;;;4.43;4.03;;;18.50;99.90;;;;;;4995588;28;20089;-75
2021/08/06 07:04:35;;;;;;;5.30;4.20;;;18.60;99.90;;;;;;4998335;28;20025;-74
2021/08/06 07:07:00;;;;;;;5.97;3.95;;;18.30;99.90;;;;;;5009672;28;20438;-75
2021/08/06 07:09:26;;;;;;;6.72;4.10;;;18.20;99.90;;;;;;4996914;28;20022;-75
2021/08/06 07:11:52;;;;;;;4.22;3.80;;;18.00;99.90;;;;;;5005795;28;20440;-75
2021/08/06 07:14:17;;;;;;;4.72;3.75;;;17.90;99.90;;;;;;5011059;28;20029;-75
2021/08/06 07:16:43;;;;;;;6.90;4.20;;;18.10;99.90;;;;;;5003463;28;20419;-74
2021/08/06 07:19:08;;;;;;;6.07;3.90;;;17.80;99.90;;;;;;4999020;28;20041;-75
2021/08/06 07:21:34;;;;;;;5.10;4.22;;;17.80;99.90;;;;;;5003236;28;20556;-74
2021/08/06 07:23:59;;;;;;;7.50;3.85;;;17.80;99.90;;;;;;5008358;28;20034;-75
2021/08/06 07:26:27;;;;;;;6.28;3.75;;;17.90;99.90;;;;;;5005170;28;20385;-75
2021/08/06 07:28:52;;;;;;;6.10;4.38;;;17.90;99.90;;;;;;5001490;28;20029;-75
2021/08/06 07:31:18;;;;;;;5.75;4.03;;;18.00;99.90;;;;;;5004589;28;20023;-74
2021/08/06 07:33:44;;;;;;;5.18;4.10;;;18.10;99.90;;;;;;5008403;28;20077;-74
2021/08/06 07:36:09;;;;;;;4.10;3.70;;;18.30;99.90;;;;;;5005099;28;20030;-73
2021/08/06 07:38:35;;;;;;;6.20;3.83;;;18.30;99.90;;;;;;4997595;28;20034;-74
2021/08/06 07:41:00;;;;;;;4.25;3.85;;;18.20;99.90;;;;;;4994860;28;20026;-75
2021/08/06 07:43:26;;;;;;;5.10;3.92;;;18.50;99.90;;;;;;5008180;28;20446;-74
2021/08/06 07:45:51;;;;;;;6.65;3.65;;;18.50;99.90;;;;;;5004510;28;20072;-75
2021/08/06 07:48:17;;;;;;;6.53;3.75;;;18.80;99.90;;;;;;5001240;28;20400;-74
2021/08/06 07:50:43;;;;;;;5.53;3.80;;;18.80;99.90;;;;;;5014173;28;20025;-75
2021/08/06 07:53:09;;;;;;;5.63;3.78;;;18.80;99.90;;;;;;5001351;28;20049;-74
2021/08/06 07:55:35;;;;;;;4.20;3.80;;;18.90;99.90;;;;;;5004186;28;20033;-74
2021/08/06 07:58:00;;;;;;;5.20;4.47;;;19.00;99.90;;;;;;5007895;28;20096;-74
2021/08/06 08:00:26;;;;;;;5.38;3.60;;;18.60;99.90;;;;;;5004139;28;20033;-74
2021/08/06 08:02:51;;;;;;;5.13;4.00;;;18.60;99.90;;;;;;4997351;28;20110;-75
2021/08/06 08:05:20;;;;;;;5.13;4.25;;;18.20;99.90;;;;;;5002566;28;20029;-75
2021/08/06 08:07:46;;;;;;;5.18;4.40;;;18.20;99.90;;;;;;5001007;28;20047;-75
2021/08/06 08:10:12;;;;;;;6.85;4.38;;;18.00;99.90;;;;;;5013863;28;20030;-75
2021/08/06 08:12:38;;;;;;;8.00;4.78;;;17.80;99.90;;;;;;4997043;28;20054;-74
2021/08/06 08:15:04;;;;;;;8.30;5.32;;;17.50;99.90;;;;;;4994130;28;20085;-74
2021/08/06 08:17:30;;;;;;;6.07;4.85;;;17.50;99.90;;;;;;4997516;28;20037;-74
2021/08/06 08:19:55;;;;;;;5.95;4.72;;;17.40;99.90;;;;;;5003801;28;20022;-74
2021/08/06 08:22:21;;;;;;;7.47;5.18;;;17.30;99.90;;;;;;4993791;28;20031;-74
2021/08/06 08:24:47;;;;;;;5.63;4.88;;;17.40;99.90;;;;;;4993823;28;20072;-74
2021/08/06 08:27:13;;;;;;;7.88;5.60;;;17.30;99.90;;;;;;4993961;28;20029;-74
2021/08/06 08:29:38;;;;;;;6.80;5.00;;;17.40;99.90;;;;;;5003674;28;20156;-75
2021/08/06 08:32:04;;;;;;;7.38;4.85;;;17.50;99.90;;;;;;5013550;28;20097;-75
2021/08/06 08:34:29;;;;;;;8.70;5.90;;;17.50;99.90;;;;;;5002709;28;20040;-74
2021/08/06 08:36:55;;;;;;;6.25;5.25;;;17.40;99.90;;;;;;5006958;28;20481;-74
2021/08/06 08:39:21;;;;;;;7.32;5.57;;;17.30;99.90;;;;;;4992371;28;20065;-75
2021/08/06 08:41:46;;;;;;;10.23;5.55;;;17.30;99.90;;;;;;5005363;28;20062;-74
2021/08/06 08:44:12;;;;;;;6.78;5.38;;;17.30;99.90;;;;;;4993793;28;20053;-74
2021/08/06 08:46:38;;;;;;;7.47;5.25;;;17.30;99.90;;;;;;4993548;28;20057;-74
2021/08/06 08:49:04;;;;;;;6.72;5.22;;;17.10;99.90;;;;;;4992291;28;20103;-74
2021/08/06 08:51:30;;;;;;;7.80;5.45;;;16.90;99.90;;;;;;5007977;28;20396;-74
2021/08/06 08:53:58;;;;;;;5.93;4.65;;;16.90;99.90;;;;;;5003509;28;20105;-74
2021/08/06 08:56:24;;;;;;;5.85;4.40;;;16.80;99.90;;;;;;4996233;28;20026;-73
2021/08/06 08:58:50;;;;;;;9.88;5.00;;;16.30;99.90;;;;;;5002212;28;20039;-74
2021/08/06 09:01:16;;;;;;;7.97;4.88;;;16.20;99.90;;;;;;4996496;28;20389;-75
2021/08/06 09:03:46;;;;;;;11.30;5.22;;;16.00;99.90;;;;;;5013004;28;20487;-74
2021/08/06 09:06:12;;;;;;;5.15;4.30;;;16.00;99.90;;;;;;4996015;28;20045;-74
2021/08/06 09:08:38;;;;;;;7.40;4.25;;;16.00;99.90;;;;;;4993062;28;20026;-74
2021/08/06 09:11:28;;;;;;;5.93;4.60;;;15.90;99.90;;;;;;4995597;28;20103;-74
2021/08/06 09:13:54;;;;;;;7.05;4.97;;;15.80;99.90;;;;;;4998851;28;20023;-75
2021/08/06 09:16:19;;;;;;;6.35;4.15;;;15.70;99.90;;;;;;5003776;28;20448;-75
2021/08/06 09:18:45;;;;;;;6.57;4.70;;;15.80;99.90;;;;;;4993239;28;20030;-75
2021/08/06 09:21:17;;;;;;;5.72;4.93;;;15.90;99.90;;;;;;4992983;28;20034;-75
2021/08/06 09:23:44;;;;;;;7.60;4.97;;;15.90;99.90;;;;;;4992932;28;20473;-74
2021/08/06 09:26:31;;;;;;;7.25;5.07;;;16.10;99.90;;;;;;5000465;28;20037;-75
2021/08/06 09:29:00;;;;;;;;;;;16.40;99.90;;;;;;4999772;28;20018;-75
2021/08/06 09:31:26;;;;;;;6.20;5.30;;;16.50;99.90;;;;;;5001714;28;19944;-75
2021/08/06 09:34:36;;;;;;;6.03;5.43;;;16.40;99.90;;;;;;4992902;28;20428;-75
2021/08/06 09:37:18;;;;;;;6.05;4.88;;;16.60;99.90;;;;;;4992864;28;20029;-75
2021/08/06 09:39:53;;;;;;;7.60;4.72;;;16.70;99.90;;;;;;5003646;28;20053;-75
2021/08/06 09:42:32;;;;;;;6.03;4.50;;;16.60;99.90;;;;;;4987093;28;20041;-75
2021/08/06 09:45:05;;;;;;;5.90;5.03;;;16.60;99.90;;;;;;4997439;28;20101;-75
2021/08/06 09:47:32;;;;;;;5.78;4.85;;;16.60;99.90;;;;;;4992761;28;20077;-75
2021/08/06 09:50:01;;;;;;;4.70;4.20;;;16.60;99.90;;;;;;5005857;28;20084;-75
2021/08/06 09:52:29;;;;;;;7.13;5.25;;;16.50;99.90;;;;;;5002378;28;20430;-75
2021/08/06 09:54:55;;;;;;;6.65;5.72;;;16.40;99.90;;;;;;4997624;28;20029;-74
2021/08/06 09:57:21;;;;;;;10.05;5.93;;;16.50;99.90;;;;;;5002418;28;20034;-75
2021/08/06 09:59:52;;;;;;;7.88;5.20;;;16.60;99.90;;;;;;5005864;28;20054;-75
2021/08/06 10:02:30;;;;;;;4.90;4.03;;;16.60;99.90;;;;;;4992604;28;20029;-75
2021/08/06 10:05:09;;;;;;;5.53;4.40;;;16.50;99.90;;;;;;4991043;28;20488;-75
2021/08/06 10:07:44;;;;;;;5.40;4.90;;;16.30;99.90;;;;;;5005768;28;20109;-75
2021/08/06 10:10:20;;;;;;;6.97;5.13;;;16.30;99.90;;;;;;5000880;28;20025;-75
2021/08/06 10:12:47;;;;;;;5.80;4.68;;;16.30;99.90;;;;;;4997701;28;20037;-74
2021/08/06 10:15:14;;;;;;;6.65;4.60;;;16.50;99.90;;;;;;4987511;28;20041;-74
2021/08/06 10:17:41;;;;;;;3.70;3.40;;;16.70;99.90;;;;;;5018998;28;20396;-75
2021/08/06 10:20:09;;;;;;;6.60;4.00;;;16.80;99.90;;;;;;5004186;28;20022;-75
2021/08/06 10:22:35;;;;;;;8.63;4.38;;;17.30;99.90;;;;;;4994235;28;20042;-75
2021/08/06 10:25:07;;;;;;;2.97;2.70;;;17.80;99.90;;;;;;4992388;28;20500;-75
2021/08/06 10:27:34;;;;;;;2.95;2.63;;;17.90;99.90;;;;;;5008607;28;20030;-75
2021/08/06 10:30:09;;;;;;;4.03;2.85;;;17.90;99.90;;;;;;5008986;28;20164;-75
2021/08/06 10:32:37;;;;;;;2.88;2.65;;;17.90;99.90;;;;;;5006215;28;20033;-75
2021/08/06 10:35:04;;;;;;;2.40;2.20;;;17.60;99.90;;;;;;5001352;28;20505;-75
2021/08/06 10:37:50;;;;;;;2.70;2.50;;;17.90;99.90;;;;;;5008313;28;20041;-75
2021/08/06 10:40:34;;;;;;;2.72;2.33;;;17.90;99.90;;;;;;5009261;28;20026;-75
2021/08/06 10:42:59;;;;;;;2.60;2.20;;;17.90;99.90;;;;;;5008740;28;20033;-75
2021/08/06 10:45:47;;;;;;;2.67;2.22;;;17.80;99.90;;;;;;4996435;28;20026;-74
2021/08/06 10:48:31;;;;;;;3.47;2.78;;;17.60;99.90;;;;;;5011637;28;20032;-74
2021/08/06 10:51:27;;;;;;;4.35;2.80;;;17.60;99.90;;;;;;5003984;28;20072;-71
2021/08/06 10:53:56;;;;;;;2.92;2.70;;;17.60;99.90;;;;;;4984888;28;20109;-72
2021/08/06 10:56:30;;;;;;;3.58;3.00;;;17.60;99.90;;;;;;4996761;28;20027;-72
2021/08/06 10:59:11;;;;;;;3.67;3.10;;;17.60;99.90;;;;;;5003683;28;20073;-72
2021/08/06 11:01:39;;;;;;;4.03;3.63;;;17.60;99.90;;;;;;5008693;28;20026;-71
2021/08/06 11:04:06;;;;;;;3.92;3.25;;;17.90;99.90;;;;;;5008639;28;20015;-72
2021/08/06 11:06:39;;;;;;;4.38;2.90;;;18.10;99.90;;;;;;5001758;28;20366;-72
2021/08/06 11:09:23;;;;;;;3.00;2.80;;;17.90;99.90;;;;;;5001244;28;20022;-72
2021/08/06 11:11:55;;;;;;;4.47;3.13;;;17.60;99.90;;;;;;5005357;28;20030;-75
2021/08/06 11:14:41;;;;;;;5.05;2.92;;;17.80;99.90;;;;;;5002249;28;20021;-75
2021/08/06 11:17:12;;;;;;;3.72;2.83;;;18.10;99.90;;;;;;5000593;28;20501;-77
2021/08/06 11:20:27;;;;;;;3.78;3.40;;;18.40;99.90;;;;;;5007782;28;20106;-76
2021/08/06 11:22:53;;;;;;;3.75;3.10;;;18.40;99.90;;;;;;4978716;28;20038;-77
2021/08/06 11:25:24;;;;;;;3.80;3.45;;;18.30;99.90;;;;;;5001489;28;20033;-76
2021/08/06 11:28:00;;;;;;;3.70;3.20;;;18.80;99.90;;;;;;5006538;28;20114;-77
2021/08/06 11:30:27;;;;;;;;;;;19.30;99.90;;;;;;4994613;28;20431;-77
2021/08/06 11:33:09;;;;;;;3.38;3.08;;;19.80;99.90;;;;;;5005478;28;19996;-77
2021/08/06 11:35:40;;;;;;;3.60;3.30;;;20.10;99.90;;;;;;5001502;28;20380;-75
2021/08/06 11:38:11;;;;;;;3.30;2.97;;;20.30;99.90;;;;;;5000983;28;20022;-75
2021/08/06 11:40:42;;;;;;;3.40;3.10;;;19.30;99.90;;;;;;4982386;28;20397;-74
2021/08/06 11:43:28;;;;;;;3.60;3.10;;;19.10;99.90;;;;;;4995217;28;20491;-72
2021/08/06 11:46:08;;;;;;;2.70;2.50;;;19.00;99.90;;;;;;5005331;28;20026;-74
2021/08/06 11:48:52;;;;;;;2.65;2.33;;;19.40;99.90;;;;;;5000032;28;20029;-74
2021/08/06 11:51:19;;;;;;;2.45;2.22;;;19.70;99.90;;;;;;5000583;28;20034;-74
2021/08/06 11:53:45;;;;;;;2.47;2.28;;;19.60;99.90;;;;;;5003970;28;20515;-74
2021/08/06 11:56:16;;;;;;;5.35;2.78;;;19.60;99.90;;;;;;4999024;28;20034;-73
2021/08/06 11:58:42;;;;;;;2.60;2.40;;;19.70;99.90;;;;;;5005664;28;20061;-74
2021/08/06 12:01:20;;;;;;;2.60;2.40;;;19.90;99.90;;;;;;5003049;28;20026;-74
2021/08/06 12:03:48;;;;;;;2.40;1.83;;;20.00;99.90;;;;;;5003534;28;20028;-75
2021/08/06 12:06:15;;;;;;;2.35;2.03;;;20.00;99.90;;;;;;4999387;28;20018;-74
2021/08/06 12:08:42;;;;;;;2.55;1.88;;;20.10;99.90;;;;;;5014040;28;20408;-74
2021/08/06 12:11:13;;;;;;;3.00;2.08;;;20.00;99.90;;;;;;5000118;28;20375;-75
2021/08/06 12:13:52;;;;;;;1.90;1.55;;;19.60;99.90;;;;;;5014043;28;20014;-76
2021/08/06 12:16:39;;;;;;;2.25;2.05;;;19.80;99.90;;;;;;4988141;28;20014;-75
2021/08/06 12:19:06;;;;;;;1.40;1.30;;;19.80;99.90;;;;;;5000558;28;20022;-76
2021/08/06 12:21:35;;;;;;;1.60;1.33;;;20.00;99.90;;;;;;5003967;28;20393;-76
2021/08/06 12:24:05;;;;;;;2.38;1.52;;;20.10;99.90;;;;;;5007821;28;20500;-76
2021/08/06 12:26:34;;;;;;;1.77;1.50;;;20.40;99.90;;;;;;5004596;28;20105;-77
2021/08/06 12:29:16;;;;;;;2.55;1.50;;;20.70;99.90;;;;;;5000546;28;20463;-76
2021/08/06 12:31:55;;;;;;;1.55;1.30;;;20.80;99.90;;;;;;5012723;28;20018;-76
2021/08/06 12:34:27;;;;;;;1.67;1.35;;;20.30;99.90;;;;;;4990721;28;20034;-76
2021/08/06 12:37:01;;;;;;;2.40;1.65;;;21.00;99.90;;;;;;5011619;28;20117;-76
2021/08/06 12:39:30;;;;;;;1.65;1.33;;;21.10;99.90;;;;;;4994358;28;20031;-75
2021/08/06 12:42:09;;;;;;;1.67;1.38;;;21.40;99.90;;;;;;4976586;28;20035;-76
2021/08/06 12:44:35;;;;;;;2.38;1.60;;;20.70;99.90;;;;;;4994239;28;20547;-77
2021/08/06 12:47:17;;;;;;;1.88;1.40;;;20.60;99.90;;;;;;5007814;28;20057;-76
2021/08/06 12:49:53;;;;;;;1.80;1.45;;;20.80;99.90;;;;;;5006010;28;20040;-77